Time;durP1;ratioP1;P1;durP2;ratioP2;P2;SDS_P1;SDS_P2;PMS_P1;PMS_P2;Temp;Humidity;BMP_temperature;BMP_pressure;BME280_temperature;BME280_humidity;BME280_pressure;Samples;Min_cycle;Max_cycle;Signal;HPM_P1;HPM_P2
2022/06/08 00:00:10;;;;;;;5.43;1.87;;;15.80;99.90;;;;;;5029232;28;20463;-54
2022/06/08 00:02:37;;;;;;;3.07;2.00;;;15.80;99.90;;;;;;5027982;28;20466;-53
2022/06/08 00:05:04;;;;;;;2.37;2.17;;;15.80;99.90;;;;;;5031427;28;20546;-53
2022/06/08 00:07:31;;;;;;;3.33;2.10;;;15.80;99.90;;;;;;5028220;28;20554;-54
2022/06/08 00:09:59;;;;;;;2.57;2.20;;;15.80;99.90;;;;;;5029993;28;21068;-54
2022/06/08 00:12:26;;;;;;;3.10;1.53;;;15.80;99.90;;;;;;5028488;28;20992;-53
2022/06/08 00:14:52;;;;;;;9.00;2.07;;;15.80;99.90;;;;;;5036725;28;20490;-53
2022/06/08 00:17:19;;;;;;;3.10;1.90;;;15.80;99.90;;;;;;5030608;28;20486;-54
2022/06/08 00:19:45;;;;;;;4.27;2.00;;;15.80;99.90;;;;;;5032168;28;20516;-54
2022/06/08 00:22:12;;;;;;;2.60;1.87;;;15.80;99.90;;;;;;5028064;28;21075;-53
2022/06/08 00:24:39;;;;;;;2.67;2.00;;;15.80;99.90;;;;;;5030382;28;20462;-54
2022/06/08 00:27:08;;;;;;;2.00;1.90;;;15.70;99.90;;;;;;5030563;28;20919;-53
2022/06/08 00:29:35;;;;;;;2.10;1.90;;;15.70;99.90;;;;;;5026867;28;20524;-54
2022/06/08 00:32:02;;;;;;;1.90;1.80;;;15.70;99.90;;;;;;5038194;28;20501;-54
2022/06/08 00:34:29;;;;;;;3.17;2.03;;;15.60;99.90;;;;;;5034463;28;20553;-53
2022/06/08 00:36:55;;;;;;;2.37;2.20;;;15.60;99.90;;;;;;5030182;28;20487;-54
2022/06/08 00:39:22;;;;;;;1.77;1.57;;;15.60;99.90;;;;;;5030293;28;20495;-53
2022/06/08 00:41:53;;;;;;;2.10;2.00;;;15.50;99.90;;;;;;5030919;28;20510;-53
2022/06/08 00:44:24;;;;;;;2.40;2.07;;;15.50;99.90;;;;;;5032892;28;20486;-53
2022/06/08 00:46:53;;;;;;;3.80;2.37;;;15.50;99.90;;;;;;5032767;28;20537;-54
2022/06/08 00:49:25;;;;;;;2.23;2.10;;;15.50;99.90;;;;;;5027553;28;20558;-53
2022/06/08 00:51:53;;;;;;;1.97;1.87;;;15.60;99.90;;;;;;5031922;28;20516;-53
2022/06/08 00:54:26;;;;;;;2.40;2.20;;;15.60;99.90;;;;;;5040529;28;20904;-54
2022/06/08 00:56:56;;;;;;;1.70;1.60;;;15.60;99.90;;;;;;5029040;28;20585;-54
2022/06/08 00:59:24;;;;;;;3.57;2.10;;;15.50;99.90;;;;;;5032334;28;20546;-52
2022/06/08 01:01:51;;;;;;;4.00;2.20;;;15.60;99.90;;;;;;5029933;28;20573;-53
2022/06/08 01:04:19;;;;;;;3.43;2.17;;;15.60;99.90;;;;;;5033327;28;20513;-54
2022/06/08 01:06:54;;;;;;;2.30;2.10;;;15.50;99.90;;;;;;5028739;28;20882;-54
2022/06/08 01:09:28;;;;;;;6.93;1.93;;;15.50;99.90;;;;;;5028628;28;20550;-53
2022/06/08 01:11:58;;;;;;;4.13;2.10;;;15.50;99.90;;;;;;5033324;28;21022;-52
2022/06/08 01:14:27;;;;;;;2.10;1.90;;;15.40;99.90;;;;;;5023270;28;20458;-53
2022/06/08 01:16:59;;;;;;;2.10;2.00;;;15.40;99.90;;;;;;5022550;28;20474;-53
2022/06/08 01:19:27;;;;;;;2.43;2.13;;;15.40;99.90;;;;;;5034319;28;20548;-54
2022/06/08 01:21:58;;;;;;;10.70;1.90;;;15.20;99.90;;;;;;5028174;28;21287;-53
2022/06/08 01:24:26;;;;;;;3.87;2.33;;;15.20;99.90;;;;;;5034704;28;20549;-53
2022/06/08 01:27:03;;;;;;;1.80;1.80;;;15.20;99.90;;;;;;5027079;28;20494;-53
2022/06/08 01:29:34;;;;;;;2.27;2.17;;;15.10;99.90;;;;;;5038385;28;20470;-53
2022/06/08 01:32:06;;;;;;;2.37;2.10;;;15.20;99.90;;;;;;5025278;28;20562;-54
2022/06/08 01:34:42;;;;;;;4.37;2.23;;;15.20;99.90;;;;;;5033760;28;20907;-53
2022/06/08 01:37:21;;;;;;;2.80;2.20;;;15.10;99.90;;;;;;5030802;28;20477;-53
2022/06/08 01:40:16;;;;;;;2.37;2.17;;;15.10;99.90;;;;;;5029762;28;20544;-53
2022/06/08 01:43:07;;;;;;;2.17;2.00;;;15.10;99.90;;;;;;4992753;28;20581;-53
2022/06/08 01:45:48;;;;;;;2.73;2.17;;;15.10;99.90;;;;;;5023035;28;20554;-53
2022/06/08 01:48:34;;;;;;;3.27;1.87;;;15.10;99.90;;;;;;5031492;28;21048;-53
2022/06/08 01:51:15;;;;;;;1.97;1.87;;;15.00;99.90;;;;;;5031426;28;20483;-53
2022/06/08 01:53:51;;;;;;;2.40;2.30;;;15.00;99.90;;;;;;5023267;28;20549;-53
2022/06/08 01:56:25;;;;;;;8.33;2.30;;;14.90;99.90;;;;;;5037076;28;20548;-54
2022/06/08 01:59:02;;;;;;;3.00;2.33;;;14.90;99.90;;;;;;5028296;28;20590;-53
2022/06/08 02:01:37;;;;;;;2.87;2.67;;;14.90;99.90;;;;;;5022028;28;20525;-53
2022/06/08 02:04:10;;;;;;;3.70;2.23;;;14.80;99.90;;;;;;5027633;28;20537;-53
2022/06/08 02:06:45;;;;;;;8.63;2.80;;;14.80;99.90;;;;;;5031619;28;20553;-53
2022/06/08 02:09:20;;;;;;;3.33;2.70;;;14.80;99.90;;;;;;5027175;28;20912;-53
2022/06/08 02:11:51;;;;;;;2.03;1.83;;;14.80;99.90;;;;;;5025092;28;21067;-49
2022/06/08 02:14:21;;;;;;;2.53;2.37;;;14.80;99.90;;;;;;5031495;28;20545;-49
2022/06/08 02:16:52;;;;;;;2.80;2.20;;;14.80;99.90;;;;;;5029593;28;20582;-49
2022/06/08 02:19:22;;;;;;;2.27;2.07;;;14.70;99.90;;;;;;5026432;28;20498;-50
2022/06/08 02:21:52;;;;;;;2.10;1.90;;;14.70;99.90;;;;;;5029821;28;20581;-50
2022/06/08 02:24:25;;;;;;;2.50;2.30;;;14.60;99.90;;;;;;5025800;28;20463;-57
2022/06/08 02:26:56;;;;;;;10.93;2.50;;;14.60;99.90;;;;;;5028532;28;20546;-56
2022/06/08 02:29:27;;;;;;;9.57;2.27;;;14.60;99.90;;;;;;5029716;28;20546;-57
2022/06/08 02:31:59;;;;;;;6.40;3.00;;;14.60;99.90;;;;;;5026953;28;21097;-57
2022/06/08 02:34:31;;;;;;;2.57;2.37;;;14.60;99.90;;;;;;5028338;28;20553;-56
2022/06/08 02:37:02;;;;;;;2.23;2.10;;;14.50;99.90;;;;;;5030820;28;20490;-56
2022/06/08 02:39:35;;;;;;;2.83;2.33;;;14.50;99.90;;;;;;5029421;28;20528;-57
2022/06/08 02:42:07;;;;;;;4.53;3.20;;;14.50;99.90;;;;;;5032158;28;20922;-56
2022/06/08 02:44:36;;;;;;;2.40;2.30;;;14.50;99.90;;;;;;5032525;28;20574;-57
2022/06/08 02:47:07;;;;;;;2.73;2.50;;;14.50;99.90;;;;;;5032743;28;20582;-56
2022/06/08 02:49:34;;;;;;;3.90;2.40;;;14.40;99.90;;;;;;5024531;28;20549;-56
2022/06/08 02:52:05;;;;;;;2.70;2.60;;;14.40;99.90;;;;;;5031228;28;20502;-56
2022/06/08 02:54:33;;;;;;;2.83;2.63;;;14.40;99.90;;;;;;5038569;28;20552;-56
2022/06/08 02:57:07;;;;;;;2.40;2.30;;;14.40;99.90;;;;;;5032138;28;20494;-57
2022/06/08 02:59:48;;;;;;;2.43;2.33;;;14.40;99.90;;;;;;5032564;28;20545;-56
2022/06/08 03:02:19;;;;;;;2.67;2.20;;;14.40;99.90;;;;;;5030408;28;20478;-56
2022/06/08 03:04:50;;;;;;;2.67;2.50;;;14.40;99.90;;;;;;5034486;28;20553;-56
2022/06/08 03:07:19;;;;;;;2.53;2.43;;;14.40;99.90;;;;;;5038610;28;20542;-56
2022/06/08 03:09:49;;;;;;;2.70;2.60;;;14.40;99.90;;;;;;5039457;28;20542;-56
2022/06/08 03:12:21;;;;;;;3.00;2.37;;;14.40;99.90;;;;;;5032788;28;21004;-57
2022/06/08 03:14:48;;;;;;;2.87;2.67;;;14.40;99.90;;;;;;5031708;28;20550;-56
2022/06/08 03:17:18;;;;;;;2.83;2.67;;;14.30;99.90;;;;;;5028912;28;20482;-56
2022/06/08 03:19:45;;;;;;;2.90;2.70;;;14.30;99.90;;;;;;5027503;28;20520;-56
2022/06/08 03:22:14;;;;;;;2.13;2.03;;;14.30;99.90;;;;;;5036360;28;20582;-56
2022/06/08 03:24:41;;;;;;;2.50;2.40;;;14.30;99.90;;;;;;5030891;28;20463;-56
2022/06/08 03:27:10;;;;;;;3.23;2.53;;;14.30;99.90;;;;;;5026800;28;21039;-56
2022/06/08 03:29:37;;;;;;;3.07;2.63;;;14.30;99.90;;;;;;5029623;28;20577;-56
2022/06/08 03:32:04;;;;;;;3.87;2.80;;;14.30;99.90;;;;;;5029162;28;20566;-57
2022/06/08 03:34:31;;;;;;;5.23;2.50;;;14.30;99.90;;;;;;5032091;28;20541;-56
2022/06/08 03:36:58;;;;;;;4.73;2.93;;;14.40;99.90;;;;;;5038156;28;20580;-56
2022/06/08 03:39:24;;;;;;;3.47;2.60;;;14.40;99.90;;;;;;5036447;28;20545;-56
2022/06/08 03:41:51;;;;;;;2.87;2.67;;;14.50;99.90;;;;;;5030766;28;20603;-56
2022/06/08 03:44:19;;;;;;;2.63;2.40;;;14.50;99.90;;;;;;5028575;28;20542;-57
2022/06/08 03:46:51;;;;;;;3.37;3.17;;;14.50;99.90;;;;;;5031198;28;20553;-56
2022/06/08 03:49:18;;;;;;;2.87;2.67;;;14.60;99.90;;;;;;5037306;28;20677;-56
2022/06/08 03:51:46;;;;;;;4.27;2.93;;;14.60;99.90;;;;;;5034627;28;20483;-54
2022/06/08 03:54:16;;;;;;;3.07;2.87;;;14.70;99.90;;;;;;5029488;28;20542;-54
2022/06/08 03:56:44;;;;;;;3.67;2.77;;;14.80;99.90;;;;;;5033267;28;20570;-54
2022/06/08 03:59:11;;;;;;;2.70;2.50;;;14.80;99.90;;;;;;5025902;28;20494;-54
2022/06/08 04:01:39;;;;;;;2.93;2.60;;;14.90;99.90;;;;;;5032377;28;21106;-54
2022/06/08 04:04:06;;;;;;;6.80;3.00;;;15.00;99.90;;;;;;5035121;28;20491;-55
2022/06/08 04:06:33;;;;;;;6.00;3.23;;;15.00;99.90;;;;;;5030922;28;20553;-54
2022/06/08 04:09:00;;;;;;;3.50;3.03;;;15.10;99.90;;;;;;5027986;28;20473;-54
2022/06/08 04:11:26;;;;;;;3.83;2.70;;;15.10;99.90;;;;;;5030052;28;20569;-54
2022/06/08 04:13:53;;;;;;;5.27;2.77;;;15.20;99.90;;;;;;5032171;28;20546;-54
2022/06/08 04:16:20;;;;;;;5.30;3.30;;;15.20;99.90;;;;;;5027478;28;20570;-48
2022/06/08 04:18:48;;;;;;;3.40;3.17;;;15.30;99.90;;;;;;5035317;28;20467;-54
2022/06/08 04:21:15;;;;;;;2.90;2.70;;;15.30;99.90;;;;;;5032144;28;21202;-54
2022/06/08 04:23:45;;;;;;;6.37;3.37;;;15.30;99.90;;;;;;5033142;28;20550;-55
2022/06/08 04:26:12;;;;;;;5.43;2.63;;;15.30;99.90;;;;;;5030846;28;20470;-53
2022/06/08 04:28:39;;;;;;;9.77;3.57;;;15.40;99.90;;;;;;5029251;28;20641;-54
2022/06/08 04:31:06;;;;;;;4.67;3.20;;;15.40;99.90;;;;;;5028422;28;20565;-53
2022/06/08 04:33:32;;;;;;;8.73;3.13;;;15.40;99.90;;;;;;5030961;28;20463;-53
2022/06/08 04:36:01;;;;;;;10.03;3.63;;;15.40;99.90;;;;;;5027491;28;20599;-55
2022/06/08 04:38:27;;;;;;;3.17;2.97;;;15.40;99.90;;;;;;5027632;28;20915;-54
2022/06/08 04:40:55;;;;;;;3.80;3.20;;;15.50;99.90;;;;;;5033383;28;21026;-53
2022/06/08 04:43:22;;;;;;;3.20;2.90;;;15.50;99.90;;;;;;5031912;28;20455;-55
2022/06/08 04:45:48;;;;;;;5.00;3.37;;;15.50;99.90;;;;;;5029711;28;20549;-53
2022/06/08 04:48:16;;;;;;;6.43;3.30;;;15.60;99.90;;;;;;5029226;28;20463;-53
2022/06/08 04:50:42;;;;;;;4.93;3.43;;;15.60;99.90;;;;;;5036024;28;20572;-53
2022/06/08 04:53:10;;;;;;;3.50;3.20;;;15.70;99.90;;;;;;5031759;28;20493;-54
2022/06/08 04:55:37;;;;;;;6.47;3.47;;;15.80;99.90;;;;;;5028635;28;20554;-53
2022/06/08 04:58:03;;;;;;;4.03;3.43;;;15.80;99.90;;;;;;5028568;28;20497;-53
2022/06/08 05:00:31;;;;;;;14.67;4.70;;;15.90;99.90;;;;;;5026522;28;20604;-53
2022/06/08 05:02:58;;;;;;;3.50;3.27;;;16.00;99.90;;;;;;5028861;28;20464;-53
2022/06/08 05:05:27;;;;;;;15.03;4.20;;;16.10;99.90;;;;;;5027870;28;20546;-54
2022/06/08 05:07:53;;;;;;;4.10;3.80;;;16.30;99.90;;;;;;5033322;28;20550;-53
2022/06/08 05:10:23;;;;;;;5.13;3.87;;;16.30;99.90;;;;;;5029778;28;20528;-53
2022/06/08 05:12:50;;;;;;;5.40;5.00;;;16.40;99.90;;;;;;5029837;28;20490;-53
2022/06/08 05:15:21;;;;;;;7.40;5.00;;;16.50;99.90;;;;;;5031788;28;20490;-53
2022/06/08 05:17:47;;;;;;;6.30;5.10;;;16.60;99.90;;;;;;5029702;28;20578;-53
2022/06/08 05:20:16;;;;;;;11.00;4.90;;;16.60;99.90;;;;;;5033497;28;20459;-54
2022/06/08 05:22:43;;;;;;;7.80;4.80;;;16.70;99.90;;;;;;5027412;28;20467;-52
2022/06/08 05:25:12;;;;;;;9.10;4.47;;;16.70;99.90;;;;;;5029234;28;20550;-54
2022/06/08 05:27:40;;;;;;;8.43;4.83;;;16.90;99.90;;;;;;5028610;28;20528;-53
2022/06/08 05:30:09;;;;;;;13.47;5.60;;;16.90;99.90;;;;;;5033609;28;21036;-54
2022/06/08 05:32:35;;;;;;;7.87;4.63;;;17.10;99.90;;;;;;5027373;28;21002;-54
2022/06/08 05:35:02;;;;;;;5.80;4.37;;;17.10;99.90;;;;;;5021038;28;20557;-53
2022/06/08 05:37:28;;;;;;;6.17;4.20;;;17.20;99.90;;;;;;5042227;28;21266;-54
2022/06/08 05:39:55;;;;;;;5.50;4.40;;;17.30;99.90;;;;;;5028345;28;20545;-54
2022/06/08 05:42:22;;;;;;;3.23;3.03;;;17.40;99.90;;;;;;5028549;28;20558;-53
2022/06/08 05:44:50;;;;;;;5.00;4.23;;;17.40;99.90;;;;;;5024786;28;20445;-53
2022/06/08 05:47:17;;;;;;;5.13;3.50;;;17.50;99.90;;;;;;5031288;28;20532;-54
2022/06/08 05:49:43;;;;;;;4.67;2.97;;;17.50;99.90;;;;;;5022763;28;20465;-53
2022/06/08 05:52:11;;;;;;;4.73;3.53;;;17.50;20.50;;;;;;5028129;28;20557;-53
2022/06/08 05:54:37;;;;;;;5.83;3.73;;;17.60;75.80;;;;;;5031730;28;20541;-54
2022/06/08 05:57:05;;;;;;;6.80;2.90;;;17.70;28.30;;;;;;5025528;28;20581;-54
2022/06/08 05:59:32;;;;;;;3.90;2.67;;;17.80;33.40;;;;;;5028067;28;20904;-54
2022/06/08 06:02:00;;;;;;;4.17;2.87;;;17.90;31.70;;;;;;5028462;28;20931;-54
2022/06/08 06:04:26;;;;;;;3.10;2.80;;;18.00;29.40;;;;;;5029713;28;20907;-54
2022/06/08 06:06:53;;;;;;;5.27;2.50;;;18.10;38.40;;;;;;5034711;28;20545;-54
2022/06/08 06:09:20;;;;;;;9.20;3.50;;;18.30;47.00;;;;;;5056065;22;20592;-57
2022/06/08 06:11:48;;;;;;;6.53;4.57;;;18.30;56.50;;;;;;5045568;28;20481;-54
2022/06/08 06:14:14;;;;;;;6.20;4.00;;;18.40;56.60;;;;;;5052836;28;20468;-49
2022/06/08 06:16:41;;;;;;;3.73;2.80;;;18.50;56.50;;;;;;5051755;28;20465;-50
2022/06/08 06:19:09;;;;;;;6.23;2.90;;;18.50;58.90;;;;;;5050671;28;20536;-50
2022/06/08 06:21:35;;;;;;;4.73;2.87;;;18.60;70.00;;;;;;5047893;28;20561;-49
2022/06/08 06:24:04;;;;;;;6.00;2.80;;;18.60;73.70;;;;;;5046444;28;20550;-49
2022/06/08 06:26:31;;;;;;;3.10;2.90;;;18.70;86.50;;;;;;5047772;28;20512;-49
2022/06/08 06:28:58;;;;;;;5.50;3.43;;;18.70;89.30;;;;;;5043643;28;20460;-49
2022/06/08 06:31:29;;;;;;;5.03;3.10;;;18.80;90.50;;;;;;5048836;28;21007;-49
2022/06/08 06:33:56;;;;;;;4.23;2.87;;;18.90;92.00;;;;;;5049030;28;20539;-49
2022/06/08 06:36:24;;;;;;;7.03;3.73;;;18.90;95.70;;;;;;5049449;28;21022;-48
2022/06/08 06:38:52;;;;;;;4.57;3.53;;;19.00;98.50;;;;;;5048685;28;20572;-50
2022/06/08 06:41:19;;;;;;;3.43;3.13;;;19.00;94.10;;;;;;5047732;28;20482;-50
2022/06/08 06:43:46;;;;;;;3.67;2.60;;;19.00;92.40;;;;;;5051602;28;20552;-50
2022/06/08 06:46:13;;;;;;;5.47;2.90;;;19.10;94.40;;;;;;5049470;28;20489;-49
2022/06/08 06:48:40;;;;;;;6.70;3.03;;;19.20;99.90;;;;;;5052136;28;20461;-50
2022/06/08 06:51:07;;;;;;;3.87;2.77;;;19.30;99.60;;;;;;5046751;28;20565;-50
2022/06/08 06:53:35;;;;;;;4.27;2.70;;;19.40;99.90;;;;;;5049320;28;20541;-49
2022/06/08 06:56:02;;;;;;;5.33;2.50;;;19.40;99.70;;;;;;5049483;28;20528;-49
2022/06/08 06:58:29;;;;;;;11.83;2.50;;;19.50;99.90;;;;;;5044714;28;20572;-49
2022/06/08 07:00:56;;;;;;;5.50;2.60;;;19.50;99.90;;;;;;5047432;28;21058;-49
2022/06/08 07:03:23;;;;;;;5.97;2.70;;;19.50;99.90;;;;;;5050157;28;20463;-49
2022/06/08 07:05:50;;;;;;;4.90;3.13;;;19.50;99.90;;;;;;5046256;28;20513;-49
2022/06/08 07:08:16;;;;;;;5.17;3.30;;;19.60;99.90;;;;;;5050439;28;21052;-49
2022/06/08 07:11:32;;;;;;;3.93;2.70;;;19.50;99.90;;;;;;5047941;28;20569;-49
2022/06/08 07:13:31;;;;;;;2.80;2.60;;;19.50;99.90;;;;;;5046881;28;20466;-50
2022/06/08 07:15:57;;;;;;;6.70;2.60;;;19.50;99.90;;;;;;5044330;28;20517;-49
2022/06/08 07:18:24;;;;;;;12.40;3.13;;;19.50;99.90;;;;;;5050465;28;20560;-49
2022/06/08 07:20:50;;;;;;;9.60;2.97;;;19.60;99.90;;;;;;5045828;28;20594;-50
2022/06/08 07:23:17;;;;;;;9.00;2.80;;;19.60;99.90;;;;;;5048614;28;20557;-51
2022/06/08 07:25:45;;;;;;;5.57;2.40;;;19.60;96.50;;;;;;5045970;28;20459;-50
2022/06/08 07:28:12;;;;;;;3.20;2.23;;;19.70;99.90;;;;;;5046834;28;20576;-53
2022/06/08 07:30:38;;;;;;;6.27;2.20;;;19.80;99.90;;;;;;5049855;28;20483;-55
2022/06/08 07:33:05;;;;;;;2.40;1.80;;;19.80;99.90;;;;;;5053640;28;20453;-54
2022/06/08 07:35:32;;;;;;;5.97;2.13;;;19.90;99.90;;;;;;5054838;28;20527;-54
2022/06/08 07:37:58;;;;;;;2.90;1.97;;;19.90;99.90;;;;;;5049533;28;20571;-55
2022/06/08 07:40:25;;;;;;;8.70;2.40;;;19.90;99.90;;;;;;5046778;28;21019;-54
2022/06/08 07:42:53;;;;;;;5.83;3.00;;;19.90;99.90;;;;;;5047210;28;20544;-54
2022/06/08 07:45:19;;;;;;;5.87;2.90;;;20.00;99.90;;;;;;5049288;28;20532;-55
2022/06/08 07:50:31;;;;;;;4.83;3.17;;;20.00;99.90;;;;;;5044878;28;20531;-56
2022/06/08 07:52:58;;;;;;;5.40;2.80;;;20.00;99.90;;;;;;5043898;28;20457;-55
2022/06/08 07:55:25;;;;;;;3.50;2.67;;;19.90;99.90;;;;;;5050654;28;20544;-54
2022/06/08 07:57:53;;;;;;;5.67;3.03;;;19.90;99.90;;;;;;5050334;28;20569;-55
2022/06/08 08:00:21;;;;;;;3.63;2.20;;;19.90;99.90;;;;;;5052454;28;20821;-54
2022/06/08 08:02:47;;;;;;;7.33;2.47;;;19.90;99.90;;;;;;5045204;28;20573;-54
2022/06/08 08:05:16;;;;;;;3.17;2.87;;;20.00;99.90;;;;;;5052388;28;20540;-53
2022/06/08 08:07:43;;;;;;;4.33;2.40;;;20.10;99.90;;;;;;5047630;28;20553;-54
2022/06/08 08:10:19;;;;;;;3.50;2.20;;;20.10;99.90;;;;;;5042087;28;20465;-53
2022/06/08 08:12:47;;;;;;;2.93;2.40;;;20.20;99.90;;;;;;5043257;28;20457;-50
2022/06/08 08:15:16;;;;;;;4.83;2.00;;;20.20;99.90;;;;;;5045273;28;20608;-49
2022/06/08 08:17:43;;;;;;;4.37;1.87;;;20.30;99.90;;;;;;5049389;28;20508;-50
2022/06/08 08:20:13;;;;;;;7.33;2.50;;;20.30;99.90;;;;;;5042921;28;20549;-49
2022/06/08 08:22:40;;;;;;;3.10;2.10;;;20.40;99.90;;;;;;5042500;28;20549;-50
2022/06/08 08:25:09;;;;;;;3.23;1.70;;;20.40;99.90;;;;;;5041134;28;20585;-51
2022/06/08 08:27:36;;;;;;;1.70;1.60;;;20.40;99.90;;;;;;5044737;28;20462;-50
2022/06/08 08:30:03;;;;;;;1.40;1.40;;;20.40;99.90;;;;;;5046973;28;20598;-50
2022/06/08 08:32:31;;;;;;;2.20;1.70;;;20.40;99.90;;;;;;5047052;28;20576;-50
2022/06/08 08:34:58;;;;;;;1.80;1.60;;;20.40;99.90;;;;;;5040124;28;20592;-51
2022/06/08 08:37:24;;;;;;;1.73;1.40;;;20.50;99.90;;;;;;5042930;28;20556;-49
2022/06/08 08:39:51;;;;;;;3.03;1.27;;;20.50;99.90;;;;;;5041362;28;20525;-50
2022/06/08 08:42:21;;;;;;;2.20;1.20;;;20.50;99.90;;;;;;5044051;28;20569;-50
2022/06/08 08:44:51;;;;;;;10.60;2.90;;;20.60;99.90;;;;;;5047494;28;20497;-50
2022/06/08 08:47:38;;;;;;;9.83;1.63;;;20.70;99.90;;;;;;5036964;28;20520;-50
2022/06/08 08:50:15;;;;;;;2.73;1.60;;;20.70;99.90;;;;;;5048385;28;20832;-50
2022/06/08 08:52:48;;;;;;;12.53;1.90;;;20.90;99.90;;;;;;5047532;28;20540;-50
2022/06/08 08:55:19;;;;;;;2.53;1.87;;;21.10;99.90;;;;;;5043351;28;20553;-50
2022/06/08 08:57:55;;;;;;;9.63;1.63;;;21.20;99.90;;;;;;5042711;28;20469;-50
2022/06/08 09:00:31;;;;;;;1.97;1.63;;;21.40;99.90;;;;;;5042945;28;20995;-50
2022/06/08 09:03:16;;;;;;;6.73;1.73;;;21.50;99.90;;;;;;5036812;28;20548;-51
2022/06/08 09:05:44;;;;;;;1.67;1.50;;;21.70;99.90;;;;;;5042355;28;20545;-51
2022/06/08 09:08:12;;;;;;;3.83;1.80;;;21.70;99.90;;;;;;5048658;28;20454;-51
2022/06/08 09:10:39;;;;;;;2.60;1.70;;;21.70;99.90;;;;;;5048774;28;20553;-51
2022/06/08 09:13:07;;;;;;;1.87;1.47;;;21.60;99.90;;;;;;5043716;28;20552;-51
2022/06/08 09:15:47;;;;;;;4.97;1.03;;;21.60;99.90;;;;;;5045028;28;20533;-50
2022/06/08 09:18:21;;;;;;;2.70;1.60;;;21.50;99.90;;;;;;5043478;28;20940;-50
2022/06/08 09:20:48;;;;;;;3.33;1.60;;;21.50;99.90;;;;;;5045767;28;20565;-50
2022/06/08 09:23:26;;;;;;;5.80;2.00;;;21.50;99.90;;;;;;5042934;28;20916;-50
2022/06/08 09:26:07;;;;;;;5.00;1.57;;;21.60;99.90;;;;;;5048404;28;20541;-51
2022/06/08 09:28:35;;;;;;;2.30;1.73;;;21.70;99.90;;;;;;5038437;28;20520;-50
2022/06/08 09:31:02;;;;;;;6.83;2.00;;;21.90;99.90;;;;;;5037615;28;20477;-50
2022/06/08 09:33:35;;;;;;;2.47;1.70;;;22.10;99.90;;;;;;5044724;28;20462;-50
2022/06/08 09:36:04;;;;;;;4.23;1.70;;;22.40;99.90;;;;;;5044138;28;20537;-50
2022/06/08 09:38:40;;;;;;;3.77;2.27;;;22.50;99.90;;;;;;5039036;28;20525;-51
2022/06/08 09:41:15;;;;;;;3.17;2.17;;;22.40;99.90;;;;;;5039575;28;20560;-50
2022/06/08 09:44:05;;;;;;;5.57;1.37;;;22.30;99.90;;;;;;5038872;28;20560;-50
2022/06/08 09:52:38;;;;;;;1.40;1.30;;;22.20;99.90;;;;;;5043081;28;20525;-51
2022/06/08 09:55:16;;;;;;;2.43;1.40;;;22.20;99.90;;;;;;5042051;28;20533;-50
2022/06/08 09:57:49;;;;;;;6.27;1.73;;;22.10;99.90;;;;;;5045635;28;20489;-50
2022/06/08 10:00:27;;;;;;;2.30;1.47;;;22.10;99.90;;;;;;5043674;28;20549;-50
2022/06/08 10:03:06;;;;;;;4.40;1.67;;;22.10;99.90;;;;;;5043330;28;20457;-50
2022/06/08 10:05:42;;;;;;;4.40;2.00;;;22.10;99.90;;;;;;5044309;28;20473;-49
2022/06/08 10:08:19;;;;;;;3.20;1.63;;;22.20;99.90;;;;;;5045475;28;20552;-50
2022/06/08 10:10:54;;;;;;;7.93;1.57;;;22.40;99.90;;;;;;5045667;28;20473;-50
2022/06/08 10:13:29;;;;;;;1.93;1.47;;;22.70;99.90;;;;;;5046981;28;20544;-50
2022/06/08 10:16:02;;;;;;;1.30;1.20;;;22.90;99.90;;;;;;5046239;28;20549;-50
2022/06/08 10:18:34;;;;;;;4.00;1.20;;;23.00;99.90;;;;;;5045337;28;20521;-50
2022/06/08 10:21:07;;;;;;;1.23;1.23;;;23.30;99.90;;;;;;5043974;28;20584;-50
2022/06/08 10:23:37;;;;;;;4.53;1.00;;;23.40;99.90;;;;;;5047327;28;20466;-50
2022/06/08 10:26:12;;;;;;;1.60;1.50;;;23.40;99.90;;;;;;5040452;28;20469;-50
2022/06/08 10:28:42;;;;;;;2.10;1.30;;;23.40;99.90;;;;;;5039804;28;20453;-50
2022/06/08 10:31:16;;;;;;;1.63;1.37;;;23.30;99.90;;;;;;5039607;28;20577;-50
2022/06/08 10:33:49;;;;;;;1.67;1.37;;;23.30;99.90;;;;;;5045724;28;20541;-50
2022/06/08 10:36:18;;;;;;;10.43;1.37;;;23.20;99.90;;;;;;5040389;28;20553;-50
2022/06/08 10:38:45;;;;;;;1.10;1.00;;;23.10;99.90;;;;;;5041334;28;20521;-50
2022/06/08 10:44:28;;;;;;;3.33;1.27;;;22.80;99.90;;;;;;5039759;28;20445;-50
2022/06/08 10:46:55;;;;;;;2.50;1.10;;;22.90;99.90;;;;;;5037678;28;20457;-50
2022/06/08 10:49:50;;;;;;;4.67;1.30;;;22.90;99.90;;;;;;5041429;28;20496;-50
2022/06/08 10:52:28;;;;;;;1.57;1.47;;;22.90;99.90;;;;;;5041112;28;20512;-50
2022/06/08 10:55:37;;;;;;;2.20;1.27;;;22.80;99.90;;;;;;5042803;28;20504;-50
2022/06/08 10:58:13;;;;;;;2.50;1.10;;;22.90;99.90;;;;;;5041237;28;20457;-50
2022/06/08 11:01:01;;;;;;;4.53;1.17;;;22.90;99.90;;;;;;5045071;28;20939;-50
2022/06/08 11:03:57;;;;;;;1.27;1.17;;;22.90;99.90;;;;;;5048839;28;21141;-50
2022/06/08 11:07:01;;;;;;;10.53;1.37;;;23.00;99.90;;;;;;5050933;28;20541;-50
2022/06/08 11:09:47;;;;;;;2.00;1.10;;;22.90;99.90;;;;;;5047293;28;20519;-50
2022/06/08 11:12:40;;;;;;;2.93;1.77;;;22.90;99.90;;;;;;5046226;28;20477;-54
2022/06/08 11:15:16;;;;;;;1.50;1.40;;;22.80;99.90;;;;;;5049406;28;20489;-54
2022/06/08 11:17:52;;;;;;;1.83;1.67;;;22.70;99.90;;;;;;5046515;28;20556;-54
2022/06/08 11:20:23;;;;;;;2.40;1.23;;;22.80;99.90;;;;;;5053267;28;20465;-54
2022/06/08 11:22:54;;;;;;;3.13;1.30;;;23.10;99.90;;;;;;5048805;28;21045;-54
2022/06/08 11:25:27;;;;;;;1.10;1.00;;;23.40;99.90;;;;;;5050636;28;20528;-55
2022/06/08 11:28:29;;;;;;;2.17;1.20;;;23.70;99.90;;;;;;5050902;28;20553;-53
2022/06/08 11:30:58;;;;;;;3.03;1.10;;;23.80;99.90;;;;;;5046510;28;20481;-54
2022/06/08 11:33:51;;;;;;;2.80;1.00;;;23.80;99.90;;;;;;5051455;28;20462;-54
2022/06/08 11:36:29;;;;;;;1.53;1.10;;;23.60;99.90;;;;;;5053595;28;20509;-54
2022/06/08 11:39:16;;;;;;;4.70;1.37;;;23.50;99.90;;;;;;5051790;28;20501;-54
2022/06/08 11:41:44;;;;;;;4.40;1.10;;;23.40;99.90;;;;;;5050526;28;20505;-54
2022/06/08 11:44:15;;;;;;;5.10;0.90;;;23.50;99.90;;;;;;5048704;28;20504;-53
2022/06/08 11:46:45;;;;;;;0.90;0.90;;;23.80;99.90;;;;;;5050733;28;20496;-54
2022/06/08 11:49:38;;;;;;;1.00;0.90;;;24.10;99.90;;;;;;5049698;28;20496;-54
2022/06/08 11:52:24;;;;;;;1.93;1.20;;;24.10;99.90;;;;;;5047384;28;20478;-54
2022/06/08 11:55:17;;;;;;;0.90;0.90;;;24.10;99.90;;;;;;5048009;28;20454;-54
2022/06/08 11:57:49;;;;;;;1.37;1.30;;;24.00;99.90;;;;;;5041770;28;20496;-54
2022/06/08 12:00:29;;;;;;;1.53;1.10;;;23.90;99.90;;;;;;5042324;28;20485;-54
2022/06/08 12:03:01;;;;;;;0.97;0.97;;;23.80;99.90;;;;;;5045149;28;20458;-53
2022/06/08 12:05:31;;;;;;;1.37;1.27;;;23.70;99.90;;;;;;5046950;28;20573;-53
2022/06/08 12:08:08;;;;;;;0.90;0.90;;;23.70;99.90;;;;;;5055062;28;20464;-54
2022/06/08 12:10:37;;;;;;;3.73;1.23;;;23.80;99.90;;;;;;5047810;28;20454;-53
2022/06/08 12:13:05;;;;;;;1.43;0.80;;;24.00;99.90;;;;;;5045995;28;20537;-54
2022/06/08 12:15:48;;;;;;;0.87;0.83;;;24.00;99.90;;;;;;5047790;28;20557;-53
2022/06/08 12:18:41;;;;;;;0.90;0.90;;;24.00;99.90;;;;;;5048009;28;20470;-55
2022/06/08 12:21:27;;;;;;;3.40;0.70;;;24.00;99.90;;;;;;5049295;28;20531;-54
2022/06/08 12:24:07;;;;;;;0.93;0.93;;;23.90;99.90;;;;;;5043697;28;20497;-55
2022/06/08 12:26:43;;;;;;;1.37;0.90;;;23.80;99.90;;;;;;5044312;28;20458;-54
2022/06/08 12:29:27;;;;;;;1.10;1.00;;;23.80;99.90;;;;;;5045906;28;20499;-54
2022/06/08 12:32:03;;;;;;;2.70;1.00;;;23.90;99.90;;;;;;5048851;28;20573;-54
2022/06/08 12:34:37;;;;;;;2.20;1.17;;;24.10;99.90;;;;;;5041951;28;20536;-53
2022/06/08 12:37:29;;;;;;;5.63;1.40;;;24.10;99.90;;;;;;5043807;28;20452;-53
2022/06/08 12:39:58;;;;;;;3.43;1.10;;;23.80;99.90;;;;;;5045653;28;20560;-54
2022/06/08 12:42:28;;;;;;;2.10;1.10;;;23.70;99.90;;;;;;5043544;28;20585;-54
2022/06/08 12:44:58;;;;;;;1.97;1.00;;;23.70;99.90;;;;;;5047657;28;20544;-55
2022/06/08 12:47:29;;;;;;;0.83;0.83;;;23.70;99.90;;;;;;5046676;28;20461;-54
2022/06/08 12:50:01;;;;;;;3.57;1.00;;;23.80;99.90;;;;;;5048408;28;20454;-54
2022/06/08 12:52:29;;;;;;;3.13;0.97;;;23.80;99.90;;;;;;5045504;28;21003;-52
2022/06/08 12:54:56;;;;;;;3.33;0.90;;;23.90;99.90;;;;;;5043136;28;20543;-54
2022/06/08 12:57:30;;;;;;;2.30;0.73;;;23.90;99.90;;;;;;5045265;28;20491;-53
2022/06/08 12:59:59;;;;;;;1.30;0.90;;;23.90;99.90;;;;;;5046150;28;20478;-54
2022/06/08 13:02:30;;;;;;;1.30;0.90;;;23.90;99.90;;;;;;5041264;28;20492;-53
2022/06/08 13:04:58;;;;;;;3.23;1.00;;;23.80;99.90;;;;;;5048102;28;20458;-53
2022/06/08 13:07:27;;;;;;;1.00;0.80;;;23.80;99.90;;;;;;5044703;28;20545;-55
2022/06/08 13:09:54;;;;;;;7.00;1.10;;;23.80;99.90;;;;;;5047325;28;20548;-55
2022/06/08 13:12:24;;;;;;;1.03;0.70;;;23.70;99.90;;;;;;5042083;28;21072;-55
2022/06/08 13:14:53;;;;;;;10.33;1.00;;;23.80;99.90;;;;;;5048478;28;20468;-55
2022/06/08 13:17:22;;;;;;;3.50;1.00;;;23.90;99.90;;;;;;5043797;28;21030;-55